sensor_id;sensor_type;location;lat;lon;timestamp;pressure;altitude;pressure_sealevel;temperature;humidity
29825;BME280;16713;52.916;12.834;2023-09-19T00:00:22;99933.34;;;18.82;77.24
29825;BME280;16713;52.916;12.834;2023-09-19T00:02:57;99931.69;;;18.84;77.12
29825;BME280;16713;52.916;12.834;2023-09-19T00:05:29;99927.59;;;18.89;77.80
29825;BME280;16713;52.916;12.834;2023-09-19T00:07:56;99924.06;;;18.89;77.57
29825;BME280;16713;52.916;12.834;2023-09-19T00:10:27;99926.06;;;18.88;76.97
29825;BME280;16713;52.916;12.834;2023-09-19T00:12:58;99924.94;;;18.86;77.90
29825;BME280;16713;52.916;12.834;2023-09-19T00:15:45;99922.91;;;18.86;77.59
29825;BME280;16713;52.916;12.834;2023-09-19T00:18:17;99922.16;;;18.86;77.84
29825;BME280;16713;52.916;12.834;2023-09-19T00:20:47;99919.00;;;18.83;76.78
29825;BME280;16713;52.916;12.834;2023-09-19T00:23:15;99920.63;;;18.81;76.79
29825;BME280;16713;52.916;12.834;2023-09-19T00:25:41;99936.53;;;18.80;76.86
29825;BME280;16713;52.916;12.834;2023-09-19T00:28:08;99934.47;;;18.84;77.66
29825;BME280;16713;52.916;12.834;2023-09-19T00:30:36;99928.72;;;18.75;76.73
29825;BME280;16713;52.916;12.834;2023-09-19T00:33:04;99932.91;;;18.83;76.79
29825;BME280;16713;52.916;12.834;2023-09-19T00:35:33;99935.38;;;18.78;77.03
29825;BME280;16713;52.916;12.834;2023-09-19T00:38:00;99924.91;;;18.66;77.90
29825;BME280;16713;52.916;12.834;2023-09-19T00:40:28;99936.53;;;18.80;77.01
29825;BME280;16713;52.916;12.834;2023-09-19T00:42:58;99942.88;;;18.81;77.36
29825;BME280;16713;52.916;12.834;2023-09-19T00:45:27;99937.47;;;18.74;77.09
29825;BME280;16713;52.916;12.834;2023-09-19T00:47:55;99946.06;;;18.79;77.39
29825;BME280;16713;52.916;12.834;2023-09-19T00:50:25;99944.09;;;18.80;76.91
29825;BME280;16713;52.916;12.834;2023-09-19T00:52:54;99957.69;;;18.74;77.05
29825;BME280;16713;52.916;12.834;2023-09-19T00:55:25;99954.16;;;18.74;76.80
29825;BME280;16713;52.916;12.834;2023-09-19T00:57:52;99957.34;;;18.72;76.94
29825;BME280;16713;52.916;12.834;2023-09-19T01:00:19;99955.75;;;18.71;77.29
29825;BME280;16713;52.916;12.834;2023-09-19T01:02:47;99962.41;;;18.77;76.83
29825;BME280;16713;52.916;12.834;2023-09-19T01:05:15;99959.63;;;18.77;77.51
29825;BME280;16713;52.916;12.834;2023-09-19T01:07:41;99958.19;;;18.69;77.36
29825;BME280;16713;52.916;12.834;2023-09-19T01:10:11;99966.38;;;18.76;77.56
29825;BME280;16713;52.916;12.834;2023-09-19T01:13:05;99970.75;;;18.77;77.54
29825;BME280;16713;52.916;12.834;2023-09-19T01:21:28;99970.44;;;18.72;77.09
29825;BME280;16713;52.916;12.834;2023-09-19T01:29:39;99969.72;;;18.68;77.40
29825;BME280;16713;52.916;12.834;2023-09-19T01:32:12;99978.97;;;18.61;77.42
29825;BME280;16713;52.916;12.834;2023-09-19T01:34:56;99968.94;;;18.67;77.32
29825;BME280;16713;52.916;12.834;2023-09-19T01:37:30;99955.47;;;18.66;76.60
29825;BME280;16713;52.916;12.834;2023-09-19T01:40:01;99958.69;;;18.64;76.42
29825;BME280;16713;52.916;12.834;2023-09-19T01:42:44;99949.63;;;18.60;76.90
29825;BME280;16713;52.916;12.834;2023-09-19T01:45:13;99955.47;;;18.66;76.52
29825;BME280;16713;52.916;12.834;2023-09-19T01:47:48;99961.78;;;18.66;76.74
29825;BME280;16713;52.916;12.834;2023-09-19T01:50:24;99955.91;;;18.64;76.94
29825;BME280;16713;52.916;12.834;2023-09-19T01:55:28;99959.53;;;18.61;77.53
29825;BME280;16713;52.916;12.834;2023-09-19T01:58:20;99955.59;;;18.59;77.36
29825;BME280;16713;52.916;12.834;2023-09-19T02:00:49;99961.88;;;18.63;77.55
29825;BME280;16713;52.916;12.834;2023-09-19T02:03:20;99965.09;;;18.61;77.59
29825;BME280;16713;52.916;12.834;2023-09-19T02:05:52;99971.47;;;18.58;77.25
29825;BME280;16713;52.916;12.834;2023-09-19T02:08:21;99973.06;;;18.59;76.57
29825;BME280;16713;52.916;12.834;2023-09-19T02:10:52;99967.88;;;18.61;76.27
29825;BME280;16713;52.916;12.834;2023-09-19T02:15:46;99982.94;;;18.60;75.29
29825;BME280;16713;52.916;12.834;2023-09-19T02:18:13;99978.63;;;18.59;75.46
29825;BME280;16713;52.916;12.834;2023-09-19T02:20:41;99995.78;;;18.54;74.68
29825;BME280;16713;52.916;12.834;2023-09-19T02:28:01;100001.31;;;18.54;73.45
29825;BME280;16713;52.916;12.834;2023-09-19T02:30:29;99997.69;;;18.57;73.99
29825;BME280;16713;52.916;12.834;2023-09-19T02:32:56;100008.22;;;18.46;72.55
29825;BME280;16713;52.916;12.834;2023-09-19T02:35:22;100006.09;;;18.54;71.86
29825;BME280;16713;52.916;12.834;2023-09-19T02:37:50;100006.72;;;18.42;71.77
29825;BME280;16713;52.916;12.834;2023-09-19T02:40:16;100012.22;;;18.45;70.90
29825;BME280;16713;52.916;12.834;2023-09-19T02:42:52;100005.06;;;18.44;70.71
29825;BME280;16713;52.916;12.834;2023-09-19T02:45:19;100011.84;;;18.43;71.31
29825;BME280;16713;52.916;12.834;2023-09-19T02:47:47;100006.06;;;18.34;70.52
29825;BME280;16713;52.916;12.834;2023-09-19T02:50:14;100004.56;;;18.30;70.54
29825;BME280;16713;52.916;12.834;2023-09-19T02:52:45;100014.75;;;18.36;70.05
29825;BME280;16713;52.916;12.834;2023-09-19T02:55:16;100006.47;;;18.33;69.87
29825;BME280;16713;52.916;12.834;2023-09-19T02:57:53;100017.66;;;18.29;70.39
29825;BME280;16713;52.916;12.834;2023-09-19T03:00:23;100024.56;;;18.21;70.05
29825;BME280;16713;52.916;12.834;2023-09-19T03:02:55;100028.16;;;18.18;70.13
29825;BME280;16713;52.916;12.834;2023-09-19T03:05:23;100033.97;;;18.27;69.67
29825;BME280;16713;52.916;12.834;2023-09-19T03:07:50;100038.84;;;18.20;69.61
29825;BME280;16713;52.916;12.834;2023-09-19T03:10:20;100047.59;;;18.18;68.88
29825;BME280;16713;52.916;12.834;2023-09-19T03:12:47;100052.75;;;18.20;68.85
29825;BME280;16713;52.916;12.834;2023-09-19T03:15:15;100053.97;;;18.15;68.83
29825;BME280;16713;52.916;12.834;2023-09-19T03:17:45;100058.34;;;18.16;68.82
29825;BME280;16713;52.916;12.834;2023-09-19T03:20:14;100063.09;;;18.16;69.20
29825;BME280;16713;52.916;12.834;2023-09-19T03:22:44;100063.91;;;18.16;69.16
29825;BME280;16713;52.916;12.834;2023-09-19T03:25:11;100078.34;;;18.04;69.25
29825;BME280;16713;52.916;12.834;2023-09-19T03:27:38;100072.38;;;18.06;69.93
29825;BME280;16713;52.916;12.834;2023-09-19T03:30:06;100090.63;;;18.07;69.97
29825;BME280;16713;52.916;12.834;2023-09-19T03:32:46;100102.06;;;18.09;69.19
29825;BME280;16713;52.916;12.834;2023-09-19T03:35:13;100084.38;;;17.99;69.46
29825;BME280;16713;52.916;12.834;2023-09-19T03:37:41;100102.06;;;18.09;69.87
29825;BME280;16713;52.916;12.834;2023-09-19T03:40:09;100098.56;;;18.05;69.16
29825;BME280;16713;52.916;12.834;2023-09-19T03:42:41;100102.06;;;18.09;69.39
29825;BME280;16713;52.916;12.834;2023-09-19T03:45:08;100103.28;;;18.08;69.39
29825;BME280;16713;52.916;12.834;2023-09-19T03:47:42;100102.97;;;18.02;69.81
29825;BME280;16713;52.916;12.834;2023-09-19T03:50:09;100099.88;;;17.97;69.25
29825;BME280;16713;52.916;12.834;2023-09-19T03:52:37;100101.44;;;17.98;70.30
29825;BME280;16713;52.916;12.834;2023-09-19T03:55:04;100108.03;;;18.07;69.59
29825;BME280;16713;52.916;12.834;2023-09-19T03:57:31;100106.81;;;18.12;70.16
29825;BME280;16713;52.916;12.834;2023-09-19T03:59:58;100104.53;;;18.03;69.86
29825;BME280;16713;52.916;12.834;2023-09-19T04:02:24;100112.75;;;18.10;69.84
29825;BME280;16713;52.916;12.834;2023-09-19T04:04:51;100106.84;;;18.08;69.67
29825;BME280;16713;52.916;12.834;2023-09-19T04:07:18;100105.38;;;18.00;69.04
29825;BME280;16713;52.916;12.834;2023-09-19T04:09:46;100110.47;;;18.05;70.15
29825;BME280;16713;52.916;12.834;2023-09-19T04:12:12;100106.94;;;18.01;70.08
29825;BME280;16713;52.916;12.834;2023-09-19T04:14:39;100114.63;;;17.90;69.57
29825;BME280;16713;52.916;12.834;2023-09-19T04:17:05;100112.53;;;17.98;70.25
29825;BME280;16713;52.916;12.834;2023-09-19T04:19:36;100115.75;;;17.96;69.62
29825;BME280;16713;52.916;12.834;2023-09-19T04:22:03;100125.16;;;18.02;69.62
29825;BME280;16713;52.916;12.834;2023-09-19T04:24:30;100128.72;;;18.03;70.10
29825;BME280;16713;52.916;12.834;2023-09-19T04:26:58;100121.56;;;18.05;70.36
29825;BME280;16713;52.916;12.834;2023-09-19T04:29:25;100126.09;;;17.92;70.43
29825;BME280;16713;52.916;12.834;2023-09-19T04:31:56;100123.66;;;17.98;69.62
29825;BME280;16713;52.916;12.834;2023-09-19T04:34:26;100132.72;;;18.02;70.33
29825;BME280;16713;52.916;12.834;2023-09-19T04:36:52;100132.69;;;18.05;70.21
29825;BME280;16713;52.916;12.834;2023-09-19T04:39:19;100130.38;;;18.00;70.40
29825;BME280;16713;52.916;12.834;2023-09-19T04:41:47;100124.41;;;18.02;69.70
29825;BME280;16713;52.916;12.834;2023-09-19T04:44:14;100125.25;;;17.99;69.65
29825;BME280;16713;52.916;12.834;2023-09-19T04:46:42;100126.00;;;17.99;70.17
29825;BME280;16713;52.916;12.834;2023-09-19T04:49:08;100126.06;;;17.96;70.09
29825;BME280;16713;52.916;12.834;2023-09-19T04:51:35;100135.56;;;17.95;69.97
29825;BME280;16713;52.916;12.834;2023-09-19T04:54:03;100132.47;;;17.89;70.27
29825;BME280;16713;52.916;12.834;2023-09-19T04:56:29;100145.59;;;17.85;70.07
29825;BME280;16713;52.916;12.834;2023-09-19T04:58:56;100146.03;;;17.84;69.74
29825;BME280;16713;52.916;12.834;2023-09-19T05:01:25;100151.16;;;17.85;69.75
29825;BME280;16713;52.916;12.834;2023-09-19T05:03:52;100148.00;;;17.83;69.99
29825;BME280;16713;52.916;12.834;2023-09-19T05:06:19;100148.53;;;17.75;70.03
29825;BME280;16713;52.916;12.834;2023-09-19T05:08:49;100156.47;;;17.73;70.04
29825;BME280;16713;52.916;12.834;2023-09-19T05:11:21;100153.66;;;17.76;70.02
29825;BME280;16713;52.916;12.834;2023-09-19T05:13:49;100146.31;;;17.63;70.87
29825;BME280;16713;52.916;12.834;2023-09-19T05:16:17;100155.38;;;17.67;70.42
29825;BME280;16713;52.916;12.834;2023-09-19T05:18:43;100155.38;;;17.67;70.63
29825;BME280;16713;52.916;12.834;2023-09-19T05:21:10;100158.09;;;17.70;70.15
29825;BME280;16713;52.916;12.834;2023-09-19T05:23:36;100160.22;;;17.59;70.07
29825;BME280;16713;52.916;12.834;2023-09-19T05:26:06;100154.00;;;17.48;70.74
29825;BME280;16713;52.916;12.834;2023-09-19T05:28:32;100171.88;;;17.47;70.52
29825;BME280;16713;52.916;12.834;2023-09-19T05:31:01;100165.53;;;17.46;70.32
29825;BME280;16713;52.916;12.834;2023-09-19T05:33:30;100170.41;;;17.35;70.93
29825;BME280;16713;52.916;12.834;2023-09-19T05:35:58;100171.88;;;17.47;71.05
29825;BME280;16713;52.916;12.834;2023-09-19T05:38:25;100179.50;;;17.39;71.47
29825;BME280;16713;52.916;12.834;2023-09-19T05:40:54;100181.63;;;17.25;71.56
29825;BME280;16713;52.916;12.834;2023-09-19T05:43:21;100199.66;;;17.40;71.27
29825;BME280;16713;52.916;12.834;2023-09-19T05:45:48;100195.41;;;17.32;70.56
29825;BME280;16713;52.916;12.834;2023-09-19T05:48:15;100200.19;;;17.31;71.39
29825;BME280;16713;52.916;12.834;2023-09-19T05:50:43;100210.78;;;17.36;71.23
29825;BME280;16713;52.916;12.834;2023-09-19T05:53:10;100204.78;;;17.41;71.32
29825;BME280;16713;52.916;12.834;2023-09-19T05:55:41;100206.44;;;17.35;71.27
29825;BME280;16713;52.916;12.834;2023-09-19T05:58:08;100207.50;;;17.48;71.19
29825;BME280;16713;52.916;12.834;2023-09-19T06:00:36;100211.88;;;17.46;71.81
29825;BME280;16713;52.916;12.834;2023-09-19T06:03:05;100215.41;;;17.50;71.70
29825;BME280;16713;52.916;12.834;2023-09-19T06:05:32;100213.94;;;17.38;71.56
29825;BME280;16713;52.916;12.834;2023-09-19T06:07:58;100214.59;;;17.49;71.15
29825;BME280;16713;52.916;12.834;2023-09-19T06:10:34;100209.50;;;17.44;71.13
29825;BME280;16713;52.916;12.834;2023-09-19T06:13:04;100211.47;;;17.48;71.43
29825;BME280;16713;52.916;12.834;2023-09-19T06:15:32;100224.13;;;17.48;71.41
29825;BME280;16713;52.916;12.834;2023-09-19T06:17:59;100221.63;;;17.58;70.48
29825;BME280;16713;52.916;12.834;2023-09-19T06:20:26;100221.59;;;17.61;71.19
29825;BME280;16713;52.916;12.834;2023-09-19T06:22:53;100222.94;;;17.49;71.44
29825;BME280;16713;52.916;12.834;2023-09-19T06:25:20;100236.69;;;17.60;70.59
29825;BME280;16713;52.916;12.834;2023-09-19T06:27:49;100238.25;;;17.61;71.09
29825;BME280;16713;52.916;12.834;2023-09-19T06:30:18;100246.09;;;17.70;70.38
29825;BME280;16713;52.916;12.834;2023-09-19T06:32:45;100250.03;;;17.69;71.21
29825;BME280;16713;52.916;12.834;2023-09-19T06:35:13;100249.31;;;17.65;70.84
29825;BME280;16713;52.916;12.834;2023-09-19T06:37:40;100254.03;;;17.68;70.64
29825;BME280;16713;52.916;12.834;2023-09-19T06:40:11;100253.19;;;17.71;70.38
29825;BME280;16713;52.916;12.834;2023-09-19T06:42:43;100251.72;;;17.59;70.24
29825;BME280;16713;52.916;12.834;2023-09-19T06:45:14;100261.56;;;17.67;70.84
29825;BME280;16713;52.916;12.834;2023-09-19T06:47:45;100278.09;;;17.78;70.41
29825;BME280;16713;52.916;12.834;2023-09-19T06:50:22;100276.09;;;17.78;70.79
29825;BME280;16713;52.916;12.834;2023-09-19T06:52:51;100273.38;;;17.75;70.75
29825;BME280;16713;52.916;12.834;2023-09-19T06:55:18;100272.09;;;17.83;70.51
29825;BME280;16713;52.916;12.834;2023-09-19T06:57:47;100293.50;;;17.82;71.03
29825;BME280;16713;52.916;12.834;2023-09-19T07:00:14;100293.25;;;17.70;70.19
29825;BME280;16713;52.916;12.834;2023-09-19T07:03:04;100310.13;;;17.82;70.58
29825;BME280;16713;52.916;12.834;2023-09-19T07:05:35;100303.78;;;17.82;70.11
29825;BME280;16713;52.916;12.834;2023-09-19T07:08:07;100311.34;;;17.81;69.51
29825;BME280;16713;52.916;12.834;2023-09-19T07:10:34;100317.25;;;17.83;70.02
29825;BME280;16713;52.916;12.834;2023-09-19T07:13:03;100315.69;;;17.82;69.32
29825;BME280;16713;52.916;12.834;2023-09-19T07:15:32;100326.03;;;17.78;70.13
29825;BME280;16713;52.916;12.834;2023-09-19T07:18:06;100324.84;;;17.79;69.45
29825;BME280;16713;52.916;12.834;2023-09-19T07:20:32;100322.50;;;17.74;69.44
29825;BME280;16713;52.916;12.834;2023-09-19T07:23:00;100337.13;;;17.78;69.18
29825;BME280;16713;52.916;12.834;2023-09-19T07:25:28;100329.16;;;17.84;68.95
29825;BME280;16713;52.916;12.834;2023-09-19T07:27:55;100339.50;;;17.80;69.22
29825;BME280;16713;52.916;12.834;2023-09-19T07:30:22;100333.53;;;17.81;69.12
29825;BME280;16713;52.916;12.834;2023-09-19T07:32:49;100336.69;;;17.83;69.13
29825;BME280;16713;52.916;12.834;2023-09-19T07:35:16;100339.09;;;17.81;69.04
29825;BME280;16713;52.916;12.834;2023-09-19T07:37:42;100328.34;;;17.83;68.74
29825;BME280;16713;52.916;12.834;2023-09-19T07:40:09;100333.88;;;17.87;68.20
29825;BME280;16713;52.916;12.834;2023-09-19T07:42:36;100339.09;;;17.81;68.96
29825;BME280;16713;52.916;12.834;2023-09-19T07:45:05;100343.50;;;17.75;68.11
29825;BME280;16713;52.916;12.834;2023-09-19T07:47:32;100335.50;;;17.84;68.65
29825;BME280;16713;52.916;12.834;2023-09-19T07:49:59;100344.69;;;17.78;68.23
29825;BME280;16713;52.916;12.834;2023-09-19T07:52:28;100341.13;;;17.74;67.71
29825;BME280;16713;52.916;12.834;2023-09-19T07:54:55;100339.53;;;17.76;67.66
29825;BME280;16713;52.916;12.834;2023-09-19T07:57:24;100340.41;;;17.70;67.66
29825;BME280;16713;52.916;12.834;2023-09-19T07:59:51;100340.38;;;17.73;67.20
29825;BME280;16713;52.916;12.834;2023-09-19T08:02:17;100341.94;;;17.74;67.63
29825;BME280;16713;52.916;12.834;2023-09-19T08:04:45;100356.59;;;17.75;67.63
29825;BME280;16713;52.916;12.834;2023-09-19T08:07:12;100353.31;;;17.83;67.94
29825;BME280;16713;52.916;12.834;2023-09-19T08:09:39;100348.56;;;17.84;68.15
29825;BME280;16713;52.916;12.834;2023-09-19T08:12:06;100358.00;;;17.90;68.24
29825;BME280;16713;52.916;12.834;2023-09-19T08:14:36;100359.66;;;17.84;67.26
29825;BME280;16713;52.916;12.834;2023-09-19T08:17:07;100377.47;;;17.86;66.57
29825;BME280;16713;52.916;12.834;2023-09-19T08:19:34;100360.91;;;17.79;66.27
29825;BME280;16713;52.916;12.834;2023-09-19T08:22:02;100365.56;;;17.89;66.29
29825;BME280;16713;52.916;12.834;2023-09-19T08:24:30;100359.13;;;17.99;66.50
29825;BME280;16713;52.916;12.834;2023-09-19T08:26:57;100370.22;;;17.99;65.90
29825;BME280;16713;52.916;12.834;2023-09-19T08:29:24;100359.50;;;18.01;66.62
29825;BME280;16713;52.916;12.834;2023-09-19T08:31:55;100367.00;;;18.04;65.73
29825;BME280;16713;52.916;12.834;2023-09-19T08:34:23;100367.25;;;18.17;65.94
29825;BME280;16713;52.916;12.834;2023-09-19T08:36:54;100367.63;;;18.19;64.39
29825;BME280;16713;52.916;12.834;2023-09-19T08:39:24;100387.00;;;18.26;63.96
29825;BME280;16713;52.916;12.834;2023-09-19T08:41:58;100379.06;;;18.24;63.60
29825;BME280;16713;52.916;12.834;2023-09-19T08:44:26;100388.56;;;18.27;63.46
29825;BME280;16713;52.916;12.834;2023-09-19T08:46:55;100390.84;;;18.35;63.47
29825;BME280;16713;52.916;12.834;2023-09-19T08:49:48;100389.50;;;18.47;63.70
29825;BME280;16713;52.916;12.834;2023-09-19T08:52:22;100401.84;;;18.42;62.80
29825;BME280;16713;52.916;12.834;2023-09-19T08:54:52;100395.84;;;18.47;62.78
29825;BME280;16713;52.916;12.834;2023-09-19T08:57:22;100401.38;;;18.47;62.55
29825;BME280;16713;52.916;12.834;2023-09-19T08:59:49;100393.81;;;18.51;62.19
29825;BME280;16713;52.916;12.834;2023-09-19T09:02:16;100405.19;;;18.60;62.56
29825;BME280;16713;52.916;12.834;2023-09-19T09:04:46;100408.72;;;18.64;62.39
29825;BME280;16713;52.916;12.834;2023-09-19T09:07:14;100397.19;;;18.66;62.66
29825;BME280;16713;52.916;12.834;2023-09-19T09:09:40;100402.88;;;18.55;62.15
29825;BME280;16713;52.916;12.834;2023-09-19T09:12:11;100404.47;;;18.56;62.51
29825;BME280;16713;52.916;12.834;2023-09-19T09:14:46;100393.38;;;18.56;62.85
29825;BME280;16713;52.916;12.834;2023-09-19T09:17:15;100393.84;;;18.48;61.22
29825;BME280;16713;52.916;12.834;2023-09-19T09:19:42;100397.31;;;18.55;62.19
29825;BME280;16713;52.916;12.834;2023-09-19T09:22:10;100404.06;;;18.58;61.62
29825;BME280;16713;52.916;12.834;2023-09-19T09:24:51;100413.16;;;18.58;60.88
29825;BME280;16713;52.916;12.834;2023-09-19T09:27:20;100418.38;;;18.56;61.05
29825;BME280;16713;52.916;12.834;2023-09-19T09:29:51;100417.09;;;18.61;61.48
29825;BME280;16713;52.916;12.834;2023-09-19T09:34:49;100416.00;;;18.55;60.55
29825;BME280;16713;52.916;12.834;2023-09-19T09:37:17;100416.69;;;18.62;61.06
29825;BME280;16713;52.916;12.834;2023-09-19T09:39:56;100406.06;;;18.54;60.53
29825;BME280;16713;52.916;12.834;2023-09-19T09:42:34;100410.00;;;18.60;60.35
29825;BME280;16713;52.916;12.834;2023-09-19T09:50:35;100417.06;;;18.64;59.13
29825;BME280;16713;52.916;12.834;2023-09-19T09:53:25;100415.19;;;18.54;58.91
29825;BME280;16713;52.916;12.834;2023-09-19T09:56:06;100417.41;;;18.66;59.81
29825;BME280;16713;52.916;12.834;2023-09-19T09:58:37;100416.31;;;18.60;59.55
29825;BME280;16713;52.916;12.834;2023-09-19T10:01:07;100418.22;;;18.67;59.07
29825;BME280;16713;52.916;12.834;2023-09-19T10:03:40;100417.38;;;18.70;59.92
29825;BME280;16713;52.916;12.834;2023-09-19T10:06:12;100418.59;;;18.72;59.54
29825;BME280;16713;52.916;12.834;2023-09-19T10:09:05;100424.16;;;18.69;58.26
29825;BME280;16713;52.916;12.834;2023-09-19T10:11:48;100423.25;;;18.79;59.30
29825;BME280;16713;52.916;12.834;2023-09-19T10:14:26;100425.63;;;18.80;58.61
29825;BME280;16713;52.916;12.834;2023-09-19T10:16:59;100423.69;;;18.77;58.80
29825;BME280;16713;52.916;12.834;2023-09-19T10:19:36;100432.78;;;18.78;58.44
29825;BME280;16713;52.916;12.834;2023-09-19T10:22:04;100420.28;;;18.63;56.72
29825;BME280;16713;52.916;12.834;2023-09-19T10:24:33;100413.06;;;18.65;57.22
29825;BME280;16713;52.916;12.834;2023-09-19T10:27:11;100420.16;;;18.73;57.42
29825;BME280;16713;52.916;12.834;2023-09-19T10:29:39;100423.31;;;18.75;57.97
29825;BME280;16713;52.916;12.834;2023-09-19T10:32:06;100431.28;;;18.70;56.74
29825;BME280;16713;52.916;12.834;2023-09-19T10:34:35;100431.19;;;18.80;57.42
29825;BME280;16713;52.916;12.834;2023-09-19T10:37:04;100430.72;;;18.86;57.56
29825;BME280;16713;52.916;12.834;2023-09-19T10:39:32;100434.25;;;18.86;57.41
29825;BME280;16713;52.916;12.834;2023-09-19T10:42:02;100436.28;;;18.86;56.42
29825;BME280;16713;52.916;12.834;2023-09-19T10:44:33;100442.25;;;18.84;55.46
29825;BME280;16713;52.916;12.834;2023-09-19T10:47:00;100447.06;;;18.80;55.29
29825;BME280;16713;52.916;12.834;2023-09-19T10:49:27;100437.56;;;18.77;55.71
29825;BME280;16713;52.916;12.834;2023-09-19T10:51:56;100439.88;;;18.82;55.70
29825;BME280;16713;52.916;12.834;2023-09-19T10:54:29;100441.09;;;18.81;56.52
29825;BME280;16713;52.916;12.834;2023-09-19T10:56:59;100442.28;;;18.80;55.71
29825;BME280;16713;52.916;12.834;2023-09-19T10:59:26;100444.19;;;18.87;55.84
29825;BME280;16713;52.916;12.834;2023-09-19T11:02:18;100446.41;;;18.99;55.41
29825;BME280;16713;52.916;12.834;2023-09-19T11:04:45;100454.28;;;19.04;55.84
29825;BME280;16713;52.916;12.834;2023-09-19T11:07:15;100452.34;;;19.01;55.68
29825;BME280;16713;52.916;12.834;2023-09-19T11:09:54;100461.41;;;19.05;55.61
29825;BME280;16713;52.916;12.834;2023-09-19T11:26:43;100453.31;;;19.18;54.70
29825;BME280;16713;52.916;12.834;2023-09-19T11:29:32;100461.56;;;19.21;55.39
29825;BME280;16713;52.916;12.834;2023-09-19T11:31:59;100446.84;;;19.24;55.37
29825;BME280;16713;52.916;12.834;2023-09-19T11:40:08;100472.56;;;19.32;53.47
29825;BME280;16713;52.916;12.834;2023-09-19T11:42:48;100465.34;;;19.34;53.59
29825;BME280;16713;52.916;12.834;2023-09-19T11:48:18;100474.13;;;19.33;53.06
29825;BME280;16713;52.916;12.834;2023-09-19T11:50:45;100481.56;;;19.39;53.55
29825;BME280;16713;52.916;12.834;2023-09-19T11:53:13;100474.28;;;19.22;53.13
29825;BME280;16713;52.916;12.834;2023-09-19T11:55:43;100466.66;;;19.26;52.34
29825;BME280;16713;52.916;12.834;2023-09-19T11:58:13;100479.69;;;19.33;52.58
29825;BME280;16713;52.916;12.834;2023-09-19T12:00:43;100478.84;;;19.36;52.71
29825;BME280;16713;52.916;12.834;2023-09-19T12:03:12;100480.44;;;19.37;54.16
29825;BME280;16713;52.916;12.834;2023-09-19T12:05:40;100473.69;;;19.34;53.61
29825;BME280;16713;52.916;12.834;2023-09-19T12:08:07;100474.13;;;19.33;53.87
29825;BME280;16713;52.916;12.834;2023-09-19T12:10:48;100476.44;;;19.38;53.30
29825;BME280;16713;52.916;12.834;2023-09-19T12:13:19;100489.88;;;19.43;54.33
29825;BME280;16713;52.916;12.834;2023-09-19T12:15:45;100477.84;;;19.23;53.61
29825;BME280;16713;52.916;12.834;2023-09-19T12:18:27;100488.97;;;19.23;52.18
29825;BME280;16713;52.916;12.834;2023-09-19T12:20:54;100484.47;;;19.32;53.16
29825;BME280;16713;52.916;12.834;2023-09-19T12:23:21;100489.19;;;19.35;52.09
29825;BME280;16713;52.916;12.834;2023-09-19T12:25:48;100481.28;;;19.34;52.35
29825;BME280;16713;52.916;12.834;2023-09-19T12:28:19;100478.78;;;19.39;53.48
29825;BME280;16713;52.916;12.834;2023-09-19T12:30:48;100472.03;;;19.40;52.96
29825;BME280;16713;52.916;12.834;2023-09-19T12:33:19;100468.59;;;19.29;52.78
29825;BME280;16713;52.916;12.834;2023-09-19T12:35:52;100478.00;;;19.39;54.20
29825;BME280;16713;52.916;12.834;2023-09-19T12:38:29;100472.56;;;19.32;52.43
29825;BME280;16713;52.916;12.834;2023-09-19T12:40:56;100477.28;;;19.35;52.37
29825;BME280;16713;52.916;12.834;2023-09-19T12:43:25;100488.50;;;19.28;52.01
29825;BME280;16713;52.916;12.834;2023-09-19T12:45:53;100483.69;;;19.32;52.83
29825;BME280;16713;52.916;12.834;2023-09-19T12:48:24;100487.72;;;19.27;52.28
29825;BME280;16713;52.916;12.834;2023-09-19T12:51:09;100484.47;;;19.32;52.49
29825;BME280;16713;52.916;12.834;2023-09-19T12:53:40;100489.19;;;19.35;52.05
29825;BME280;16713;52.916;12.834;2023-09-19T12:56:10;100481.28;;;19.34;52.99
29825;BME280;16713;52.916;12.834;2023-09-19T12:58:55;100487.19;;;19.36;52.19
29825;BME280;16713;52.916;12.834;2023-09-19T13:01:24;100496.38;;;19.33;53.28
29825;BME280;16713;52.916;12.834;2023-09-19T13:04:13;100475.75;;;19.30;52.11
29825;BME280;16713;52.916;12.834;2023-09-19T13:07:01;100474.25;;;19.26;52.26
29825;BME280;16713;52.916;12.834;2023-09-19T13:09:28;100483.72;;;19.28;51.30
29825;BME280;16713;52.916;12.834;2023-09-19T13:12:00;100476.91;;;19.33;51.83
29825;BME280;16713;52.916;12.834;2023-09-19T13:14:29;100472.94;;;19.34;52.27
29825;BME280;16713;52.916;12.834;2023-09-19T13:17:07;100476.53;;;19.31;51.36
29825;BME280;16713;52.916;12.834;2023-09-19T13:19:46;100482.84;;;19.35;52.64
29825;BME280;16713;52.916;12.834;2023-09-19T13:22:44;100483.56;;;19.39;51.56
29825;BME280;16713;52.916;12.834;2023-09-19T13:25:22;100486.41;;;19.35;52.04
29825;BME280;16713;52.916;12.834;2023-09-19T13:27:54;100476.06;;;19.36;52.20
29825;BME280;16713;52.916;12.834;2023-09-19T13:30:24;100476.44;;;19.38;53.41
29825;BME280;16713;52.916;12.834;2023-09-19T13:32:52;100480.84;;;19.35;52.61
29825;BME280;16713;52.916;12.834;2023-09-19T13:35:20;100469.41;;;19.30;52.30
29825;BME280;16713;52.916;12.834;2023-09-19T13:37:47;100470.16;;;19.34;52.74
29825;BME280;16713;52.916;12.834;2023-09-19T13:40:17;100468.13;;;19.34;51.41
29825;BME280;16713;52.916;12.834;2023-09-19T13:42:44;100468.50;;;19.36;52.57
29825;BME280;16713;52.916;12.834;2023-09-19T13:45:10;100470.06;;;19.37;52.66
29825;BME280;16713;52.916;12.834;2023-09-19T13:47:39;100467.25;;;19.41;52.98